Steven Mcallister — WDD9664 — position and weather

sailwx.info

Track history (hours):
 
Tides and Currents Weather Stations Pressure Air Temp Water Temp Dewpoint Dewpoint Depression Visibility Wind Speed Wind Dir Waves Ship Positions

Steven Mcallister

Owner: McAllister Towing & Transportatation Company Inc., Staten Island, NY. More information available from US FCC via Universal Licensing System and Coast Guard Vessel Documentation Center.

Last reported at 2018-Jun-25 10:27 UTC. Time now 2018-Jun-25 14:11 UTC.
Position N 36°55' W 076°20'.

Length 30 m; draft 3.7 m.

Type: Tug. MMSI: 367314610.

Date/timePositionNaut miles runAvg speedWind from/ knotsBaromVisibWave heightAir tempDewpointWater temp
2018-Jun-25 10:27N 36°55' W 076°20'0 0.6
2018-Jun-25 09:45N 36°56' W 076°20'1 4.2
2018-Jun-25 09:30N 36°57' W 076°20'1 0.3
2018-Jun-25 04:51N 36°55' W 076°20'411.4
2018-Jun-25 04:29N 36°51' W 076°19'3 6.1
2018-Jun-25 04:00N 36°49' W 076°17'0 0.9
2018-Jun-25 03:30N 36°48' W 076°17'2 3.3
2018-Jun-25 03:00N 36°50' W 076°18'0 0.7
2018-Jun-25 02:30N 36°50' W 076°17'0 0.0
2018-Jun-25 02:00N 36°50' W 076°17'0 0.0
2018-Jun-25 01:30N 36°50' W 076°17'0 0.0
2018-Jun-25 01:00N 36°50' W 076°17'0 0.0
2018-Jun-24 21:28N 36°50' W 076°17'0 0.0
2018-Jun-24 20:49N 36°50' W 076°17'0 0.0
2018-Jun-24 20:28N 36°50' W 076°17'0 0.0
2018-Jun-24 19:04N 36°50' W 076°17'0 0.0
2018-Jun-24 19:00N 36°50' W 076°17'0 0.0
2018-Jun-24 18:27N 36°50' W 076°17'0 0.0
2018-Jun-24 18:00N 36°50' W 076°17'0 0.0
2018-Jun-24 14:56N 36°50' W 076°17'0 0.0
2018-Jun-24 14:24N 36°50' W 076°17'0 0.0
2018-Jun-24 14:00N 36°50' W 076°17'0 0.0
2018-Jun-24 12:40N 36°50' W 076°17'0 0.4
2018-Jun-24 12:30N 36°50' W 076°18'0 0.1
2018-Jun-24 11:51N 36°50' W 076°17'0 0.0
2018-Jun-24 09:07N 36°50' W 076°17'0 0.0
2018-Jun-24 09:00N 36°50' W 076°17'0 0.0
2018-Jun-24 08:30N 36°50' W 076°17'0 0.0
2018-Jun-24 08:00N 36°50' W 076°17'0 0.0
2018-Jun-24 07:30N 36°50' W 076°17'0 0.0
2018-Jun-24 07:00N 36°50' W 076°17'0 0.0
2018-Jun-24 06:30N 36°50' W 076°17'0 0.0
2018-Jun-24 06:00N 36°50' W 076°17'0 0.0
2018-Jun-24 05:30N 36°50' W 076°17'0 0.0
2018-Jun-24 05:00N 36°50' W 076°17'0 0.0
2018-Jun-24 04:26N 36°50' W 076°17'0 0.0
2018-Jun-24 04:00N 36°50' W 076°17'0 0.0
2018-Jun-24 03:30N 36°50' W 076°17'0 0.0
2018-Jun-24 03:00N 36°50' W 076°17'0 0.0
2018-Jun-24 02:30N 36°50' W 076°17'0 0.0
2018-Jun-24 02:00N 36°50' W 076°17'0 0.0
2018-Jun-24 01:01N 36°50' W 076°17'0 0.3
2018-Jun-24 01:00N 36°50' W 076°17'0 0.0
2018-Jun-24 00:30N 36°50' W 076°17'0 0.0
2018-Jun-24 00:00N 36°50' W 076°17'0 0.0
2018-Jun-23 23:30N 36°50' W 076°17'0 0.0
2018-Jun-23 23:00N 36°50' W 076°17'0 0.0
2018-Jun-23 21:48N 36°50' W 076°17'0 0.0
2018-Jun-23 21:11N 36°50' W 076°17'0 0.0
2018-Jun-23 21:00N 36°50' W 076°17'3 4.8
2018-Jun-23 20:17N 36°53' W 076°20'0 0.5
2018-Jun-23 19:15N 36°53' W 076°20'2 9.5
2018-Jun-23 19:00N 36°51' W 076°18'1 0.2
2018-Jun-23 15:49N 36°50' W 076°17'0 0.0
2018-Jun-23 15:29N 36°50' W 076°17'1 2.9
2018-Jun-23 15:00N 36°49' W 076°17'1 1.6
2018-Jun-23 14:30N 36°48' W 076°17'0 0.0
2018-Jun-23 14:00N 36°48' W 076°17'0 0.0
2018-Jun-23 13:30N 36°48' W 076°17'2 3.6
2018-Jun-23 12:55N 36°50' W 076°17'2 1.3
2018-Jun-23 11:32N 36°51' W 076°19'0 0.0
2018-Jun-23 11:15N 36°51' W 076°19'0 0.0
2018-Jun-23 10:28N 36°51' W 076°19'0 0.0
2018-Jun-23 09:55N 36°51' W 076°19'0 0.0
2018-Jun-23 08:45N 36°51' W 076°19'0 0.0
2018-Jun-23 08:30N 36°51' W 076°19'2 2.5
2018-Jun-23 07:51N 36°52' W 076°21'0 0.2
2018-Jun-23 07:12N 36°52' W 076°21'1 0.1
2018-Jun-22 15:11N 36°53' W 076°20'210.4
2018-Jun-22 15:00N 36°52' W 076°19'2 3.0
2018-Jun-22 14:29N 36°50' W 076°17'0 0.0
2018-Jun-22 14:00N 36°50' W 076°17'0 0.0
2018-Jun-22 13:28N 36°50' W 076°17'2 3.6
2018-Jun-22 13:00N 36°49' W 076°17'1 1.7
2018-Jun-22 12:30N 36°48' W 076°18'0 0.0
2018-Jun-22 12:00N 36°48' W 076°18'0 0.0
2018-Jun-22 11:30N 36°48' W 076°18'0 0.0
2018-Jun-22 11:00N 36°48' W 076°18'2 4.2
2018-Jun-22 10:30N 36°50' W 076°18'0 0.8
2018-Jun-22 10:00N 36°50' W 076°17'0 0.0
2018-Jun-22 09:30N 36°50' W 076°17'0 0.0
2018-Jun-22 09:00N 36°50' W 076°17'0 0.0
2018-Jun-22 08:30N 36°50' W 076°17'0 0.0
2018-Jun-22 08:00N 36°50' W 076°17'0 0.0
2018-Jun-22 07:30N 36°50' W 076°17'0 0.0
2018-Jun-22 07:00N 36°50' W 076°17'0 0.0
2018-Jun-22 06:24N 36°50' W 076°17'0 0.0
2018-Jun-22 05:56N 36°50' W 076°17'0 0.0
2018-Jun-22 05:29N 36°50' W 076°17'0 0.0
2018-Jun-22 05:00N 36°50' W 076°17'0 0.0
2018-Jun-22 04:21N 36°50' W 076°17'0 0.0
2018-Jun-22 03:45N 36°50' W 076°17'0 0.0
2018-Jun-22 03:18N 36°50' W 076°17'0 0.0
2018-Jun-22 03:00N 36°50' W 076°17'0 0.0
2018-Jun-22 02:30N 36°50' W 076°17'0 0.0
2018-Jun-22 01:58N 36°50' W 076°17'0 0.2
2018-Jun-22 01:28N 36°50' W 076°18'1 2.9
2018-Jun-22 01:00N 36°49' W 076°17'0 0.0
2018-Jun-22 00:30N 36°49' W 076°17'3 4.6
2018-Jun-21 23:49N 36°52' W 076°19'2 0.2
2018-Jun-21 13:45N 36°53' W 076°20'2 0.6
2018-Jun-21 10:02N 36°56' W 076°20'0 0.0
2018-Jun-21 03:24N 36°56' W 076°20'410.2
2018-Jun-21 02:59N 36°52' W 076°19'0 0.2
2018-Jun-21 02:09N 36°52' W 076°19'1 1.2
2018-Jun-21 01:07N 36°53' W 076°20'1 0.0
2018-Jun-20 12:40N 36°52' W 076°20'1 9.1
2018-Jun-20 12:30N 36°51' W 076°19'4 7.6
2018-Jun-20 12:00N 36°48' W 076°18'1 2.1
2018-Jun-20 11:30N 36°47' W 076°18'1 1.1
2018-Jun-20 11:00N 36°47' W 076°18'2 4.0
2018-Jun-20 10:30N 36°49' W 076°18'3 4.5
2018-Jun-20 09:56N 36°51' W 076°19'1 1.2
2018-Jun-20 09:26N 36°51' W 076°19'0 0.5
2018-Jun-20 08:50N 36°52' W 076°19'2 4.1
2018-Jun-20 08:26N 36°53' W 076°20'2 0.7
2018-Jun-20 05:43N 36°51' W 076°19'1 0.8
2018-Jun-20 04:17N 36°52' W 076°20'3 9.3
2018-Jun-20 04:00N 36°51' W 076°18'3 5.4
2018-Jun-20 03:30N 36°48' W 076°18'1 2.7
2018-Jun-20 03:00N 36°47' W 076°18'1 1.4
2018-Jun-20 02:30N 36°47' W 076°18'2 3.1
2018-Jun-20 02:00N 36°49' W 076°17'1 1.4
2018-Jun-20 00:58N 36°50' W 076°17'0 0.0
2018-Jun-20 00:24N 36°50' W 076°17'0 0.0
2018-Jun-19 23:57N 36°50' W 076°17'0 0.0
2018-Jun-19 23:30N 36°50' W 076°17'0 0.0
2018-Jun-19 22:43N 36°50' W 076°17'0 0.0
2018-Jun-19 22:30N 36°50' W 076°17'0 0.0
2018-Jun-19 21:59N 36°50' W 076°17'0 0.0
2018-Jun-19 21:30N 36°50' W 076°17'2 4.3
2018-Jun-19 21:00N 36°51' W 076°20'1 1.6
2018-Jun-19 20:30N 36°52' W 076°20'2 1.3
2018-Jun-19 18:58N 36°54' W 076°20'2 0.1
2018-Jun-19 08:34N 36°56' W 076°20'3 0.1
2018-Jun-17 08:30N 36°53' W 076°20'3 6.3
2018-Jun-17 07:58N 36°50' W 076°17'0 0.0
2018-Jun-17 07:29N 36°50' W 076°17'0 0.0
2018-Jun-17 06:58N 36°50' W 076°17'0 0.0
2018-Jun-17 06:30N 36°50' W 076°17'0 0.0
2018-Jun-17 05:59N 36°50' W 076°17'0 0.0
2018-Jun-17 05:22N 36°50' W 076°17'0 0.0
2018-Jun-17 05:00N 36°50' W 076°17'0 0.0
2018-Jun-17 04:30N 36°50' W 076°17'0 0.0
2018-Jun-17 04:00N 36°50' W 076°17'0 0.0
2018-Jun-17 03:30N 36°50' W 076°17'0 0.0
2018-Jun-17 03:00N 36°50' W 076°17'0 0.0
2018-Jun-17 02:25N 36°50' W 076°17'0 0.0
2018-Jun-17 01:55N 36°50' W 076°17'0 0.0
2018-Jun-17 01:26N 36°50' W 076°17'0 0.0
2018-Jun-16 23:34N 36°50' W 076°17'0 0.0
2018-Jun-16 23:30N 36°50' W 076°17'0 0.0
2018-Jun-16 22:01N 36°50' W 076°17'0 0.0
2018-Jun-16 22:00N 36°50' W 076°17'3 5.0
2018-Jun-16 21:18N 36°53' W 076°20'2 2.4
2018-Jun-16 20:25N 36°51' W 076°19'1 2.1
2018-Jun-16 19:45N 36°50' W 076°17'0 0.0
2018-Jun-16 19:09N 36°50' W 076°17'0 0.0
2018-Jun-16 18:38N 36°50' W 076°17'0 0.0
2018-Jun-16 18:30N 36°50' W 076°17'0 0.0
2018-Jun-16 17:48N 36°50' W 076°17'2 5.2
2018-Jun-16 17:25N 36°52' W 076°19'1 0.5
2018-Jun-16 16:23N 36°52' W 076°20'4 0.7
2018-Jun-16 10:59N 36°56' W 076°20'2 1.9
2018-Jun-16 09:51N 36°54' W 076°20'0 1.1
2018-Jun-16 09:30N 36°53' W 076°20'2 0.5
2018-Jun-16 05:34N 36°51' W 076°19'0 0.0
2018-Jun-16 03:41N 36°52' W 076°19'1 7.7
2018-Jun-16 03:29N 36°53' W 076°20'2 0.7
2018-Jun-16 00:36N 36°51' W 076°19'1 8.9
2018-Jun-16 00:30N 36°51' W 076°18'2 4.7
2018-Jun-16 00:00N 36°48' W 076°17'2 3.7
2018-Jun-15 23:30N 36°47' W 076°18'1 1.1
2018-Jun-15 23:00N 36°47' W 076°18'1 3.0
2018-Jun-15 22:30N 36°48' W 076°17'0 0.0
2018-Jun-15 22:00N 36°48' W 076°17'0 0.2
2018-Jun-15 21:30N 36°48' W 076°17'1 2.9
2018-Jun-15 21:00N 36°50' W 076°18'2 2.2
2018-Jun-15 20:07N 36°51' W 076°19'1 9.1
2018-Jun-15 20:00N 36°51' W 076°18'2 4.9
2018-Jun-15 19:30N 36°48' W 076°17'2 4.1
2018-Jun-15 19:00N 36°50' W 076°18'1 2.1
2018-Jun-15 18:30N 36°49' W 076°17'0 0.0
2018-Jun-15 17:59N 36°49' W 076°17'1 2.5
2018-Jun-15 17:30N 36°50' W 076°18'0 0.2
2018-Jun-15 16:59N 36°50' W 076°17'0 0.0
2018-Jun-15 16:29N 36°50' W 076°17'0 0.0
2018-Jun-15 15:22N 36°50' W 076°17'0 0.0
2018-Jun-15 14:58N 36°50' W 076°17'0 0.0
2018-Jun-15 14:30N 36°50' W 076°17'0 0.0
2018-Jun-15 13:59N 36°50' W 076°17'0 0.0
2018-Jun-15 13:28N 36°50' W 076°17'0 0.0
2018-Jun-15 12:57N 36°50' W 076°17'0 0.0
2018-Jun-15 12:30N 36°50' W 076°17'0 0.0
2018-Jun-15 11:59N 36°50' W 076°17'0 0.0
2018-Jun-15 11:30N 36°50' W 076°17'0 0.0
2018-Jun-15 11:00N 36°50' W 076°17'0 0.0
2018-Jun-15 10:30N 36°50' W 076°17'  
Track history (hours):
 
Tides and Currents Weather Stations Pressure Air Temp Water Temp Dewpoint Dewpoint Depression Visibility Wind Speed Wind Dir Waves Ship Positions

Steven Mcallister

Owner: McAllister Towing & Transportatation Company Inc., Staten Island, NY. More information available from US FCC via Universal Licensing System and Coast Guard Vessel Documentation Center.

Last reported at 2018-Jun-25 10:27 UTC. Time now 2018-Jun-25 14:11 UTC.
Position N 36°55' W 076°20'.

Length 30 m; draft 3.7 m.

Type: Tug. MMSI: 367314610.

Date/timePositionNaut miles runAvg speedWind from/ knotsBaromVisibWave heightAir tempDewpointWater temp
2018-Jun-25 10:27N 36°55' W 076°20'0 0.6
2018-Jun-25 09:45N 36°56' W 076°20'1 4.2
2018-Jun-25 09:30N 36°57' W 076°20'1 0.3
2018-Jun-25 04:51N 36°55' W 076°20'411.4
2018-Jun-25 04:29N 36°51' W 076°19'3 6.1
2018-Jun-25 04:00N 36°49' W 076°17'0 0.9
2018-Jun-25 03:30N 36°48' W 076°17'2 3.3
2018-Jun-25 03:00N 36°50' W 076°18'0 0.7
2018-Jun-25 02:30N 36°50' W 076°17'0 0.0
2018-Jun-25 02:00N 36°50' W 076°17'0 0.0
2018-Jun-25 01:30N 36°50' W 076°17'0 0.0
2018-Jun-25 01:00N 36°50' W 076°17'0 0.0
2018-Jun-24 21:28N 36°50' W 076°17'0 0.0
2018-Jun-24 20:49N 36°50' W 076°17'0 0.0
2018-Jun-24 20:28N 36°50' W 076°17'0 0.0
2018-Jun-24 19:04N 36°50' W 076°17'0 0.0
2018-Jun-24 19:00N 36°50' W 076°17'0 0.0
2018-Jun-24 18:27N 36°50' W 076°17'0 0.0
2018-Jun-24 18:00N 36°50' W 076°17'0 0.0
2018-Jun-24 14:56N 36°50' W 076°17'0 0.0
2018-Jun-24 14:24N 36°50' W 076°17'0 0.0
2018-Jun-24 14:00N 36°50' W 076°17'0 0.0
2018-Jun-24 12:40N 36°50' W 076°17'0 0.4
2018-Jun-24 12:30N 36°50' W 076°18'0 0.1
2018-Jun-24 11:51N 36°50' W 076°17'0 0.0
2018-Jun-24 09:07N 36°50' W 076°17'0 0.0
2018-Jun-24 09:00N 36°50' W 076°17'0 0.0
2018-Jun-24 08:30N 36°50' W 076°17'0 0.0
2018-Jun-24 08:00N 36°50' W 076°17'0 0.0
2018-Jun-24 07:30N 36°50' W 076°17'0 0.0
2018-Jun-24 07:00N 36°50' W 076°17'0 0.0
2018-Jun-24 06:30N 36°50' W 076°17'0 0.0
2018-Jun-24 06:00N 36°50' W 076°17'0 0.0
2018-Jun-24 05:30N 36°50' W 076°17'0 0.0
2018-Jun-24 05:00N 36°50' W 076°17'0 0.0
2018-Jun-24 04:26N 36°50' W 076°17'0 0.0
2018-Jun-24 04:00N 36°50' W 076°17'0 0.0
2018-Jun-24 03:30N 36°50' W 076°17'0 0.0
2018-Jun-24 03:00N 36°50' W 076°17'0 0.0
2018-Jun-24 02:30N 36°50' W 076°17'0 0.0
2018-Jun-24 02:00N 36°50' W 076°17'0 0.0
2018-Jun-24 01:01N 36°50' W 076°17'0 0.3
2018-Jun-24 01:00N 36°50' W 076°17'0 0.0
2018-Jun-24 00:30N 36°50' W 076°17'0 0.0
2018-Jun-24 00:00N 36°50' W 076°17'0 0.0
2018-Jun-23 23:30N 36°50' W 076°17'0 0.0
2018-Jun-23 23:00N 36°50' W 076°17'0 0.0
2018-Jun-23 21:48N 36°50' W 076°17'0 0.0
2018-Jun-23 21:11N 36°50' W 076°17'0 0.0
2018-Jun-23 21:00N 36°50' W 076°17'3 4.8
2018-Jun-23 20:17N 36°53' W 076°20'0 0.5
2018-Jun-23 19:15N 36°53' W 076°20'2 9.5
2018-Jun-23 19:00N 36°51' W 076°18'1 0.2
2018-Jun-23 15:49N 36°50' W 076°17'0 0.0
2018-Jun-23 15:29N 36°50' W 076°17'1 2.9
2018-Jun-23 15:00N 36°49' W 076°17'1 1.6
2018-Jun-23 14:30N 36°48' W 076°17'0 0.0
2018-Jun-23 14:00N 36°48' W 076°17'0 0.0
2018-Jun-23 13:30N 36°48' W 076°17'2 3.6
2018-Jun-23 12:55N 36°50' W 076°17'2 1.3
2018-Jun-23 11:32N 36°51' W 076°19'0 0.0
2018-Jun-23 11:15N 36°51' W 076°19'0 0.0
2018-Jun-23 10:28N 36°51' W 076°19'0 0.0
2018-Jun-23 09:55N 36°51' W 076°19'0 0.0
2018-Jun-23 08:45N 36°51' W 076°19'0 0.0
2018-Jun-23 08:30N 36°51' W 076°19'2 2.5
2018-Jun-23 07:51N 36°52' W 076°21'0 0.2
2018-Jun-23 07:12N 36°52' W 076°21'1 0.1
2018-Jun-22 15:11N 36°53' W 076°20'210.4
2018-Jun-22 15:00N 36°52' W 076°19'2 3.0
2018-Jun-22 14:29N 36°50' W 076°17'0 0.0
2018-Jun-22 14:00N 36°50' W 076°17'0 0.0
2018-Jun-22 13:28N 36°50' W 076°17'2 3.6
2018-Jun-22 13:00N 36°49' W 076°17'1 1.7
2018-Jun-22 12:30N 36°48' W 076°18'0 0.0
2018-Jun-22 12:00N 36°48' W 076°18'0 0.0
2018-Jun-22 11:30N 36°48' W 076°18'0 0.0
2018-Jun-22 11:00N 36°48' W 076°18'2 4.2
2018-Jun-22 10:30N 36°50' W 076°18'0 0.8
2018-Jun-22 10:00N 36°50' W 076°17'0 0.0
2018-Jun-22 09:30N 36°50' W 076°17'0 0.0
2018-Jun-22 09:00N 36°50' W 076°17'0 0.0
2018-Jun-22 08:30N 36°50' W 076°17'0 0.0
2018-Jun-22 08:00N 36°50' W 076°17'0 0.0
2018-Jun-22 07:30N 36°50' W 076°17'0 0.0
2018-Jun-22 07:00N 36°50' W 076°17'0 0.0
2018-Jun-22 06:24N 36°50' W 076°17'0 0.0
2018-Jun-22 05:56N 36°50' W 076°17'0 0.0
2018-Jun-22 05:29N 36°50' W 076°17'0 0.0
2018-Jun-22 05:00N 36°50' W 076°17'0 0.0
2018-Jun-22 04:21N 36°50' W 076°17'0 0.0
2018-Jun-22 03:45N 36°50' W 076°17'0 0.0
2018-Jun-22 03:18N 36°50' W 076°17'0 0.0
2018-Jun-22 03:00N 36°50' W 076°17'0 0.0
2018-Jun-22 02:30N 36°50' W 076°17'0 0.0
2018-Jun-22 01:58N 36°50' W 076°17'0 0.2
2018-Jun-22 01:28N 36°50' W 076°18'1 2.9
2018-Jun-22 01:00N 36°49' W 076°17'0 0.0
2018-Jun-22 00:30N 36°49' W 076°17'3 4.6
2018-Jun-21 23:49N 36°52' W 076°19'2 0.2
2018-Jun-21 13:45N 36°53' W 076°20'2 0.6
2018-Jun-21 10:02N 36°56' W 076°20'0 0.0
2018-Jun-21 03:24N 36°56' W 076°20'410.2
2018-Jun-21 02:59N 36°52' W 076°19'0 0.2
2018-Jun-21 02:09N 36°52' W 076°19'1 1.2
2018-Jun-21 01:07N 36°53' W 076°20'1 0.0
2018-Jun-20 12:40N 36°52' W 076°20'1 9.1
2018-Jun-20 12:30N 36°51' W 076°19'4 7.6
2018-Jun-20 12:00N 36°48' W 076°18'1 2.1
2018-Jun-20 11:30N 36°47' W 076°18'1 1.1
2018-Jun-20 11:00N 36°47' W 076°18'2 4.0
2018-Jun-20 10:30N 36°49' W 076°18'3 4.5
2018-Jun-20 09:56N 36°51' W 076°19'1 1.2
2018-Jun-20 09:26N 36°51' W 076°19'0 0.5
2018-Jun-20 08:50N 36°52' W 076°19'2 4.1
2018-Jun-20 08:26N 36°53' W 076°20'2 0.7
2018-Jun-20 05:43N 36°51' W 076°19'1 0.8
2018-Jun-20 04:17N 36°52' W 076°20'3 9.3
2018-Jun-20 04:00N 36°51' W 076°18'3 5.4
2018-Jun-20 03:30N 36°48' W 076°18'1 2.7
2018-Jun-20 03:00N 36°47' W 076°18'1 1.4
2018-Jun-20 02:30N 36°47' W 076°18'2 3.1
2018-Jun-20 02:00N 36°49' W 076°17'1 1.4
2018-Jun-20 00:58N 36°50' W 076°17'0 0.0
2018-Jun-20 00:24N 36°50' W 076°17'0 0.0
2018-Jun-19 23:57N 36°50' W 076°17'0 0.0
2018-Jun-19 23:30N 36°50' W 076°17'0 0.0
2018-Jun-19 22:43N 36°50' W 076°17'0 0.0
2018-Jun-19 22:30N 36°50' W 076°17'0 0.0
2018-Jun-19 21:59N 36°50' W 076°17'0 0.0
2018-Jun-19 21:30N 36°50' W 076°17'2 4.3
2018-Jun-19 21:00N 36°51' W 076°20'1 1.6
2018-Jun-19 20:30N 36°52' W 076°20'2 1.3
2018-Jun-19 18:58N 36°54' W 076°20'2 0.1
2018-Jun-19 08:34N 36°56' W 076°20'3 0.1
2018-Jun-17 08:30N 36°53' W 076°20'3 6.3
2018-Jun-17 07:58N 36°50' W 076°17'0 0.0
2018-Jun-17 07:29N 36°50' W 076°17'0 0.0
2018-Jun-17 06:58N 36°50' W 076°17'0 0.0
2018-Jun-17 06:30N 36°50' W 076°17'0 0.0
2018-Jun-17 05:59N 36°50' W 076°17'0 0.0
2018-Jun-17 05:22N 36°50' W 076°17'0 0.0
2018-Jun-17 05:00N 36°50' W 076°17'0 0.0
2018-Jun-17 04:30N 36°50' W 076°17'0 0.0
2018-Jun-17 04:00N 36°50' W 076°17'0 0.0
2018-Jun-17 03:30N 36°50' W 076°17'0 0.0
2018-Jun-17 03:00N 36°50' W 076°17'0 0.0
2018-Jun-17 02:25N 36°50' W 076°17'0 0.0
2018-Jun-17 01:55N 36°50' W 076°17'0 0.0
2018-Jun-17 01:26N 36°50' W 076°17'0 0.0
2018-Jun-16 23:34N 36°50' W 076°17'0 0.0
2018-Jun-16 23:30N 36°50' W 076°17'0 0.0
2018-Jun-16 22:01N 36°50' W 076°17'0 0.0
2018-Jun-16 22:00N 36°50' W 076°17'3 5.0
2018-Jun-16 21:18N 36°53' W 076°20'2 2.4
2018-Jun-16 20:25N 36°51' W 076°19'1 2.1
2018-Jun-16 19:45N 36°50' W 076°17'0 0.0
2018-Jun-16 19:09N 36°50' W 076°17'0 0.0
2018-Jun-16 18:38N 36°50' W 076°17'0 0.0
2018-Jun-16 18:30N 36°50' W 076°17'0 0.0
2018-Jun-16 17:48N 36°50' W 076°17'2 5.2
2018-Jun-16 17:25N 36°52' W 076°19'1 0.5
2018-Jun-16 16:23N 36°52' W 076°20'4 0.7
2018-Jun-16 10:59N 36°56' W 076°20'2 1.9
2018-Jun-16 09:51N 36°54' W 076°20'0 1.1
2018-Jun-16 09:30N 36°53' W 076°20'2 0.5
2018-Jun-16 05:34N 36°51' W 076°19'0 0.0
2018-Jun-16 03:41N 36°52' W 076°19'1 7.7
2018-Jun-16 03:29N 36°53' W 076°20'2 0.7
2018-Jun-16 00:36N 36°51' W 076°19'1 8.9
2018-Jun-16 00:30N 36°51' W 076°18'2 4.7
2018-Jun-16 00:00N 36°48' W 076°17'2 3.7
2018-Jun-15 23:30N 36°47' W 076°18'1 1.1
2018-Jun-15 23:00N 36°47' W 076°18'1 3.0
2018-Jun-15 22:30N 36°48' W 076°17'0 0.0
2018-Jun-15 22:00N 36°48' W 076°17'0 0.2
2018-Jun-15 21:30N 36°48' W 076°17'1 2.9
2018-Jun-15 21:00N 36°50' W 076°18'2 2.2
2018-Jun-15 20:07N 36°51' W 076°19'1 9.1
2018-Jun-15 20:00N 36°51' W 076°18'2 4.9
2018-Jun-15 19:30N 36°48' W 076°17'2 4.1
2018-Jun-15 19:00N 36°50' W 076°18'1 2.1
2018-Jun-15 18:30N 36°49' W 076°17'0 0.0
2018-Jun-15 17:59N 36°49' W 076°17'1 2.5
2018-Jun-15 17:30N 36°50' W 076°18'0 0.2
2018-Jun-15 16:59N 36°50' W 076°17'0 0.0
2018-Jun-15 16:29N 36°50' W 076°17'0 0.0
2018-Jun-15 15:22N 36°50' W 076°17'0 0.0
2018-Jun-15 14:58N 36°50' W 076°17'0 0.0
2018-Jun-15 14:30N 36°50' W 076°17'0 0.0
2018-Jun-15 13:59N 36°50' W 076°17'0 0.0
2018-Jun-15 13:28N 36°50' W 076°17'0 0.0
2018-Jun-15 12:57N 36°50' W 076°17'0 0.0
2018-Jun-15 12:30N 36°50' W 076°17'0 0.0
2018-Jun-15 11:59N 36°50' W 076°17'0 0.0
2018-Jun-15 11:30N 36°50' W 076°17'0 0.0
2018-Jun-15 11:00N 36°50' W 076°17'0 0.0
2018-Jun-15 10:30N 36°50' W 076°17'  

Dump ship's entire track history